createdAt,value
2023-05-10T00:00:36.569Z,26.38
2023-05-10T00:01:36.694Z,27.09
2023-05-10T00:02:36.806Z,27.92
2023-05-10T00:03:36.792Z,28.55
2023-05-10T00:04:36.693Z,28.78
2023-05-10T00:05:36.737Z,29.16
2023-05-10T00:06:36.792Z,28.56
2023-05-10T00:07:36.822Z,28.35
2023-05-10T00:08:36.851Z,28.77
2023-05-10T00:09:36.867Z,27.81
2023-05-10T00:10:36.922Z,27.98
2023-05-10T00:11:36.968Z,27.05
2023-05-10T00:12:36.955Z,27.80
2023-05-10T00:13:37.750Z,27.98
2023-05-10T00:14:37.149Z,28.46
2023-05-10T00:15:37.097Z,27.83
2023-05-10T00:16:37.134Z,28.13
2023-05-10T00:17:37.160Z,28.01
2023-05-10T00:18:37.202Z,29.78
2023-05-10T00:19:37.210Z,30.59
2023-05-10T00:20:37.254Z,31.16
2023-05-10T00:21:37.298Z,32.98
2023-05-10T00:22:37.326Z,32.15
2023-05-10T00:23:37.374Z,31.43
2023-05-10T00:24:37.413Z,31.64
2023-05-10T00:25:37.458Z,31.75
2023-05-10T00:26:37.461Z,31.50
2023-05-10T00:27:37.528Z,31.20
2023-05-10T00:28:37.547Z,30.41
2023-05-10T00:29:37.592Z,31.08
2023-05-10T00:30:37.594Z,31.41
2023-05-10T00:31:37.709Z,31.23
2023-05-10T00:32:37.718Z,30.90
2023-05-10T00:33:37.611Z,31.19
2023-05-10T00:34:37.623Z,31.10
2023-05-10T00:35:37.677Z,31.65
2023-05-10T00:36:37.682Z,31.32
2023-05-10T00:37:37.733Z,31.19
2023-05-10T00:38:37.767Z,31.69
2023-05-10T00:39:37.785Z,30.99
2023-05-10T00:40:37.849Z,31.55
2023-05-10T00:41:37.897Z,32.71
2023-05-10T00:42:37.914Z,31.89
2023-05-10T00:43:37.972Z,32.22
2023-05-10T00:44:37.983Z,32.90
2023-05-10T00:45:37.998Z,31.99
2023-05-10T00:46:38.077Z,31.91
2023-05-10T00:47:38.121Z,31.82
2023-05-10T00:48:38.087Z,31.84
2023-05-10T00:49:38.163Z,31.52
2023-05-10T00:50:38.147Z,32.24
2023-05-10T00:51:38.168Z,31.15
2023-05-10T00:52:38.219Z,31.27
2023-05-10T00:53:38.230Z,31.00
2023-05-10T00:54:38.309Z,31.79
2023-05-10T00:55:38.340Z,30.42
2023-05-10T00:56:38.364Z,31.20
2023-05-10T00:57:38.401Z,31.78
2023-05-10T00:58:38.414Z,32.34
2023-05-10T00:59:38.475Z,32.24
2023-05-10T01:00:38.481Z,33.33
2023-05-10T01:01:38.559Z,32.56
2023-05-10T01:02:38.669Z,31.90
2023-05-10T01:03:38.628Z,31.58
2023-05-10T01:04:38.649Z,31.88
2023-05-10T01:05:38.664Z,31.49
2023-05-10T01:06:38.676Z,31.05
2023-05-10T01:07:38.774Z,30.79
2023-05-10T01:08:38.787Z,31.08
2023-05-10T01:09:38.849Z,30.80
2023-05-10T01:10:38.828Z,30.88
2023-05-10T01:11:38.822Z,31.11
2023-05-10T01:12:38.906Z,30.99
2023-05-10T01:13:38.886Z,31.00
2023-05-10T01:14:38.929Z,30.71
2023-05-10T01:15:38.980Z,30.17
2023-05-10T01:16:38.993Z,30.25
2023-05-10T01:17:39.038Z,30.86
2023-05-10T01:18:39.069Z,31.41
2023-05-10T01:19:39.097Z,30.62
2023-05-10T01:20:39.154Z,30.67
2023-05-10T01:21:39.134Z,31.99
2023-05-10T01:22:39.163Z,30.40
2023-05-10T01:23:39.212Z,30.94
2023-05-10T01:24:39.234Z,30.65
2023-05-10T01:25:39.277Z,31.33
2023-05-10T01:26:39.294Z,31.09
2023-05-10T01:27:39.375Z,31.37
2023-05-10T01:28:39.369Z,30.75
2023-05-10T01:29:39.423Z,31.07
2023-05-10T01:30:39.467Z,30.74
2023-05-10T01:31:39.501Z,31.36
2023-05-10T01:32:39.546Z,31.93
2023-05-10T01:33:39.557Z,31.64
2023-05-10T01:34:39.589Z,31.52
2023-05-10T01:35:39.627Z,31.49
2023-05-10T01:36:39.650Z,30.87
2023-05-10T01:37:39.701Z,31.99
2023-05-10T01:38:39.691Z,31.75
2023-05-10T01:39:39.782Z,31.39
2023-05-10T01:40:39.751Z,31.46
2023-05-10T01:41:39.799Z,30.89
2023-05-10T01:42:39.859Z,31.67
2023-05-10T01:43:39.856Z,32.06
2023-05-10T01:44:39.908Z,32.19
2023-05-10T01:45:39.937Z,32.26
2023-05-10T01:46:39.995Z,32.68
2023-05-10T01:47:40.060Z,32.38
2023-05-10T01:48:40.033Z,33.16
2023-05-10T01:49:40.055Z,32.20
2023-05-10T01:50:40.135Z,32.66
2023-05-10T01:51:40.159Z,33.22
2023-05-10T01:52:40.209Z,33.69
2023-05-10T01:53:40.236Z,33.17
2023-05-10T01:54:40.252Z,33.34
2023-05-10T01:55:40.291Z,33.29
2023-05-10T01:56:40.328Z,33.23
2023-05-10T01:57:40.351Z,33.08
2023-05-10T01:58:40.371Z,34.78
2023-05-10T01:59:40.411Z,34.22
2023-05-10T02:00:40.459Z,34.05
2023-05-10T02:01:40.454Z,34.24
2023-05-10T02:02:40.509Z,34.33
2023-05-10T02:03:40.603Z,34.77
2023-05-10T02:04:40.567Z,35.29
2023-05-10T02:05:40.586Z,34.75
2023-05-10T02:06:40.613Z,35.04
2023-05-10T02:07:40.636Z,35.17
2023-05-10T02:08:40.649Z,34.52
2023-05-10T02:09:40.684Z,34.45
2023-05-10T02:10:40.699Z,35.00
2023-05-10T02:11:40.763Z,35.19
2023-05-10T02:12:40.809Z,34.92
2023-05-10T02:13:40.825Z,34.88
2023-05-10T02:14:40.843Z,36.46
2023-05-10T02:15:40.869Z,35.48
2023-05-10T02:16:40.938Z,34.32
2023-05-10T02:17:40.999Z,35.82
2023-05-10T02:18:40.952Z,36.24
2023-05-10T02:19:40.959Z,35.59
2023-05-10T02:20:41.031Z,35.65
2023-05-10T02:21:41.033Z,35.63
2023-05-10T02:22:41.051Z,35.76
2023-05-10T02:23:41.093Z,34.64
2023-05-10T02:24:41.136Z,35.27
2023-05-10T02:25:41.170Z,35.36
2023-05-10T02:26:41.226Z,35.20
2023-05-10T02:27:41.246Z,35.64
2023-05-10T02:28:41.269Z,34.82
2023-05-10T02:29:41.291Z,34.86
2023-05-10T02:30:41.319Z,34.49
2023-05-10T02:31:41.375Z,34.21
2023-05-10T02:32:41.418Z,34.74
2023-05-10T02:33:41.408Z,35.02
2023-05-10T02:34:41.429Z,34.65
2023-05-10T02:35:41.497Z,34.29
2023-05-10T02:36:41.500Z,34.99
2023-05-10T02:37:41.535Z,34.04
2023-05-10T02:38:41.548Z,33.23
2023-05-10T02:39:41.622Z,33.36
2023-05-10T02:40:41.625Z,32.71
2023-05-10T02:41:41.676Z,32.38
2023-05-10T02:42:41.671Z,32.18
2023-05-10T02:43:42.308Z,31.93
2023-05-10T02:44:41.743Z,31.41
2023-05-10T02:45:41.863Z,32.15
2023-05-10T02:46:41.759Z,30.91
2023-05-10T02:47:41.840Z,31.21
2023-05-10T02:48:41.831Z,30.90
2023-05-10T02:49:41.863Z,30.23
2023-05-10T02:50:41.913Z,30.06
2023-05-10T02:51:41.947Z,29.65
2023-05-10T02:52:42.017Z,30.52
2023-05-10T02:53:42.006Z,29.92
2023-05-10T02:54:42.039Z,29.46
2023-05-10T02:55:42.079Z,29.87
2023-05-10T02:56:42.092Z,30.08
2023-05-10T02:57:42.147Z,30.35
2023-05-10T02:58:42.160Z,29.41
2023-05-10T02:59:42.178Z,30.14
2023-05-10T03:00:42.202Z,29.26
2023-05-10T03:01:42.237Z,28.47
2023-05-10T03:02:42.293Z,28.24
2023-05-10T03:03:42.308Z,28.42
2023-05-10T03:04:42.339Z,29.20
2023-05-10T03:05:42.344Z,28.48
2023-05-10T03:06:42.365Z,28.78
2023-05-10T03:07:42.376Z,28.82
2023-05-10T03:08:42.402Z,28.08
2023-05-10T03:09:42.434Z,28.31
2023-05-10T03:10:42.446Z,27.39
2023-05-10T03:11:42.484Z,27.30
2023-05-10T03:12:42.556Z,27.22
2023-05-10T03:13:42.536Z,28.01
2023-05-10T03:14:42.540Z,27.22
2023-05-10T03:15:42.640Z,27.37
2023-05-10T03:16:44.746Z,27.36
2023-05-10T03:17:42.664Z,27.95
2023-05-10T03:18:42.662Z,27.34
2023-05-10T03:19:42.675Z,27.34
2023-05-10T03:20:42.716Z,27.43
2023-05-10T03:21:42.769Z,27.34
2023-05-10T03:22:42.784Z,26.67
2023-05-10T03:23:42.843Z,26.93
2023-05-10T03:24:42.865Z,27.42
2023-05-10T03:25:42.868Z,26.71
2023-05-10T03:26:42.909Z,26.56
2023-05-10T03:27:42.941Z,26.32
2023-05-10T03:28:42.958Z,27.08
2023-05-10T03:29:42.981Z,27.41
2023-05-10T03:30:43.000Z,27.20
2023-05-10T03:31:43.172Z,26.79
2023-05-10T03:32:43.205Z,27.06
2023-05-10T03:33:43.089Z,26.17
2023-05-10T03:34:43.119Z,26.40
2023-05-10T03:35:43.132Z,25.97
2023-05-10T03:36:43.159Z,26.06
2023-05-10T03:37:43.213Z,26.24
2023-05-10T03:38:43.216Z,27.22
2023-05-10T03:39:43.227Z,26.42
2023-05-10T03:40:43.268Z,26.56
2023-05-10T03:41:43.308Z,26.70
2023-05-10T03:42:43.325Z,27.18
2023-05-10T03:43:43.398Z,26.70
2023-05-10T03:44:43.347Z,26.37
2023-05-10T03:45:43.393Z,26.45
2023-05-10T03:46:43.458Z,25.81
2023-05-10T03:47:43.497Z,25.79
2023-05-10T03:48:43.471Z,26.44
2023-05-10T03:49:43.488Z,26.07
2023-05-10T03:50:43.484Z,25.71
2023-05-10T03:51:43.566Z,25.84
2023-05-10T03:52:43.602Z,25.77
2023-05-10T03:53:43.611Z,26.57
2023-05-10T03:54:43.630Z,25.60
2023-05-10T03:55:43.620Z,25.86
2023-05-10T03:56:43.685Z,25.15
2023-05-10T03:57:43.687Z,25.30
2023-05-10T03:58:43.749Z,24.91
2023-05-10T03:59:43.770Z,24.72
2023-05-10T04:00:43.778Z,25.05
2023-05-10T04:01:43.887Z,24.27
2023-05-10T04:02:44.635Z,24.33
2023-05-10T04:03:43.964Z,24.34
2023-05-10T04:04:43.900Z,23.77
2023-05-10T04:05:43.902Z,24.03
2023-05-10T04:06:44.010Z,23.16
2023-05-10T04:07:43.973Z,23.84
2023-05-10T04:08:44.028Z,24.02
2023-05-10T04:09:44.048Z,23.52
2023-05-10T04:10:44.061Z,23.62
2023-05-10T04:11:44.102Z,23.57
2023-05-10T04:12:44.142Z,23.25
2023-05-10T04:13:44.177Z,23.93
2023-05-10T04:14:44.170Z,23.10
2023-05-10T04:15:44.179Z,23.44
2023-05-10T04:16:44.293Z,23.05
2023-05-10T04:17:44.309Z,22.68
2023-05-10T04:18:44.286Z,22.39
2023-05-10T04:19:44.311Z,22.07
2023-05-10T04:20:44.323Z,22.41
2023-05-10T04:21:44.368Z,22.69
2023-05-10T04:22:44.407Z,21.68
2023-05-10T04:23:44.424Z,22.28
2023-05-10T04:24:44.429Z,22.00
2023-05-10T04:25:44.485Z,21.34
2023-05-10T04:26:44.536Z,21.54
2023-05-10T04:27:44.538Z,21.18
2023-05-10T04:28:44.594Z,21.23
2023-05-10T04:29:44.590Z,20.65
2023-05-10T04:30:44.681Z,20.75
2023-05-10T04:31:44.649Z,20.91
2023-05-10T04:32:44.704Z,20.84
2023-05-10T04:33:44.679Z,21.30
2023-05-10T04:34:44.724Z,21.09
2023-05-10T04:35:44.775Z,20.61
2023-05-10T04:36:44.788Z,20.58
2023-05-10T04:37:44.792Z,20.52
2023-05-10T04:38:44.830Z,20.41
2023-05-10T04:39:44.884Z,20.13
2023-05-10T04:40:44.895Z,19.98
2023-05-10T04:41:44.908Z,19.68
2023-05-10T04:42:44.984Z,19.31
2023-05-10T04:43:44.994Z,19.32
2023-05-10T04:44:45.013Z,19.66
2023-05-10T04:45:45.023Z,19.15
2023-05-10T04:46:45.090Z,19.07
2023-05-10T04:47:45.099Z,18.99
2023-05-10T04:48:45.115Z,18.45
2023-05-10T04:49:45.143Z,18.77
2023-05-10T04:50:45.170Z,18.63
2023-05-10T04:51:45.197Z,18.97
2023-05-10T04:52:45.234Z,18.96
2023-05-10T04:53:54.167Z,18.47
2023-05-10T04:54:46.240Z,18.50
2023-05-10T04:55:45.219Z,18.49
2023-05-10T04:56:45.237Z,18.50
2023-05-10T04:57:45.888Z,18.32
2023-05-10T04:58:45.188Z,18.26
2023-05-10T04:59:45.230Z,18.35
2023-05-10T05:00:52.752Z,18.25
2023-05-10T05:01:45.232Z,18.30
2023-05-10T05:02:45.343Z,18.41
2023-05-10T05:03:45.311Z,18.72
2023-05-10T05:04:45.197Z,18.93
2023-05-10T05:05:45.146Z,19.51
2023-05-10T05:06:45.181Z,19.55
2023-05-10T05:07:45.131Z,19.84
2023-05-10T05:08:45.166Z,20.12
2023-05-10T05:09:45.149Z,19.93
2023-05-10T05:10:45.132Z,19.77
2023-05-10T05:11:45.123Z,19.90
2023-05-10T05:12:45.172Z,20.07
2023-05-10T05:13:45.144Z,19.56
2023-05-10T05:14:45.092Z,19.25
2023-05-10T05:15:45.091Z,19.67
2023-05-10T05:16:45.194Z,19.48
2023-05-10T05:17:45.154Z,19.17
2023-05-10T05:18:45.106Z,18.77
2023-05-10T05:19:45.084Z,18.83
2023-05-10T05:20:45.105Z,17.25
2023-05-10T05:21:45.074Z,12.35
2023-05-10T05:22:45.073Z,8.81
2023-05-10T05:23:45.049Z,7.38
2023-05-10T05:24:45.032Z,6.86
2023-05-10T05:26:50.799Z,0.50
2023-05-10T05:27:50.768Z,0.50
2023-05-10T05:28:50.808Z,0.50
2023-05-10T05:29:50.776Z,0.50
2023-05-10T05:30:50.782Z,0.50
2023-05-10T05:31:51.046Z,0.58
2023-05-10T05:32:50.800Z,0.59
2023-05-10T05:33:50.982Z,0.59
2023-05-10T05:34:50.738Z,0.70
2023-05-10T05:35:50.732Z,0.68
2023-05-10T05:36:50.740Z,0.72
2023-05-10T05:37:50.728Z,0.77
2023-05-10T05:38:50.973Z,0.78
2023-05-10T05:39:50.716Z,0.86
2023-05-10T05:40:50.696Z,1.08
2023-05-10T05:41:50.724Z,1.15
2023-05-10T05:42:50.703Z,1.55
2023-05-10T05:43:50.964Z,1.70
2023-05-10T05:44:50.677Z,1.75
2023-05-10T05:45:57.712Z,2.14
2023-05-10T05:46:50.692Z,2.15
2023-05-10T05:47:50.721Z,2.19
2023-05-10T05:48:51.004Z,2.34
2023-05-10T05:49:50.637Z,2.60
2023-05-10T05:50:50.653Z,3.20
2023-05-10T05:51:50.655Z,3.15
2023-05-10T05:52:50.640Z,3.37
2023-05-10T05:53:50.973Z,3.55
2023-05-10T05:54:50.665Z,3.49
2023-05-10T05:55:50.598Z,3.40
2023-05-10T05:56:50.597Z,3.64
2023-05-10T05:57:50.557Z,3.82
2023-05-10T05:58:50.599Z,3.96
2023-05-10T05:59:50.599Z,3.76
2023-05-10T06:00:50.593Z,3.39
2023-05-10T06:01:50.585Z,3.40
2023-05-10T06:02:50.619Z,3.16
2023-05-10T06:03:53.168Z,3.21
2023-05-10T06:04:50.987Z,3.60
2023-05-10T06:05:50.545Z,3.58
2023-05-10T06:06:50.547Z,4.04
2023-05-10T06:07:50.558Z,4.69
2023-05-10T06:08:50.510Z,4.87
2023-05-10T06:09:50.524Z,5.18
2023-05-10T06:10:50.535Z,5.26
2023-05-10T06:11:50.545Z,6.04
2023-05-10T06:12:50.539Z,6.08
2023-05-10T06:13:50.489Z,6.38
2023-05-10T06:14:50.507Z,6.43
2023-05-10T06:15:50.484Z,8.03
2023-05-10T06:16:50.507Z,8.46
2023-05-10T06:17:50.493Z,8.33
2023-05-10T06:18:50.458Z,8.80
2023-05-10T06:19:50.491Z,9.09
2023-05-10T06:20:50.445Z,9.19
2023-05-10T06:21:53.111Z,9.46
2023-05-10T06:22:50.476Z,9.48
2023-05-10T06:23:50.485Z,9.54
2023-05-10T06:24:50.439Z,9.66
2023-05-10T06:25:50.407Z,10.08
2023-05-10T06:26:50.403Z,10.33
2023-05-10T06:27:53.787Z,10.40
2023-05-10T06:28:50.393Z,10.44
2023-05-10T06:29:52.234Z,10.55
2023-05-10T06:30:51.386Z,10.47
2023-05-10T06:31:50.450Z,10.63
2023-05-10T06:32:50.401Z,10.80
2023-05-10T06:33:50.393Z,12.34
2023-05-10T06:34:50.333Z,14.29
2023-05-10T06:35:50.311Z,12.47
2023-05-10T06:36:50.357Z,12.80
2023-05-10T06:37:50.352Z,9.53
2023-05-10T06:38:50.337Z,6.65
2023-05-10T06:39:50.383Z,4.79
2023-05-10T06:40:50.391Z,4.52
2023-05-10T06:41:50.343Z,5.61
2023-05-10T06:42:50.354Z,6.58
2023-05-10T06:43:50.484Z,6.37
2023-05-10T06:44:50.371Z,6.78
2023-05-10T06:45:50.353Z,6.98
2023-05-10T06:46:50.587Z,7.24
2023-05-10T06:47:50.462Z,7.81
2023-05-10T06:48:50.509Z,7.96
2023-05-10T06:49:51.025Z,8.31
2023-05-10T06:50:50.630Z,8.69
2023-05-10T06:51:50.714Z,9.20
2023-05-10T06:52:52.376Z,9.11
2023-05-10T06:53:50.796Z,11.97
2023-05-10T06:54:50.875Z,10.04
2023-05-10T06:55:50.853Z,9.60
2023-05-10T06:56:50.899Z,9.93
2023-05-10T06:57:50.925Z,9.77
2023-05-10T06:58:50.988Z,10.28
2023-05-10T06:59:50.950Z,10.12
2023-05-10T07:00:50.974Z,10.22
2023-05-10T07:01:51.010Z,11.39
2023-05-10T07:02:51.044Z,10.73
2023-05-10T07:03:51.103Z,11.31
2023-05-10T07:04:51.271Z,11.91
2023-05-10T07:05:51.190Z,11.32
2023-05-10T07:06:51.217Z,11.33
2023-05-10T07:07:51.215Z,11.02
2023-05-10T07:08:51.222Z,11.51
2023-05-10T07:09:51.195Z,11.08
2023-05-10T07:10:51.225Z,11.04
2023-05-10T07:11:51.327Z,11.31
2023-05-10T07:12:51.483Z,10.07
2023-05-10T07:13:51.525Z,8.73
2023-05-10T07:14:52.048Z,7.35
2023-05-10T07:15:51.637Z,6.01
2023-05-10T07:16:51.638Z,4.92
2023-05-10T07:17:51.682Z,4.35
2023-05-10T07:18:51.640Z,4.09
2023-05-10T07:19:51.697Z,3.59
2023-05-10T07:20:51.730Z,3.18
2023-05-10T07:21:51.790Z,2.84
2023-05-10T07:22:51.794Z,2.51
2023-05-10T07:23:51.860Z,2.41
2023-05-10T07:24:51.831Z,2.35
2023-05-10T07:25:51.846Z,2.15
2023-05-10T07:26:51.823Z,2.09
2023-05-10T07:27:51.872Z,2.01
2023-05-10T07:28:51.872Z,1.85
2023-05-10T07:29:51.862Z,1.85
2023-05-10T07:30:51.917Z,1.73
2023-05-10T07:31:51.955Z,1.66
2023-05-10T07:32:51.952Z,1.92
2023-05-10T07:33:51.879Z,1.74
2023-05-10T07:34:51.892Z,2.18
2023-05-10T07:35:51.925Z,2.42
2023-05-10T07:36:51.908Z,2.25
2023-05-10T07:37:51.943Z,2.15
2023-05-10T07:38:51.940Z,1.93
2023-05-10T07:39:51.932Z,1.86
2023-05-10T07:40:51.954Z,1.70
2023-05-10T07:41:52.018Z,1.48
2023-05-10T07:42:51.967Z,1.31
2023-05-10T07:43:51.979Z,1.23
2023-05-10T07:44:52.056Z,1.26
2023-05-10T07:45:54.628Z,1.18
2023-05-10T07:46:52.056Z,1.18
2023-05-10T07:47:52.126Z,1.19
2023-05-10T07:48:52.063Z,1.06
2023-05-10T07:49:52.026Z,1.24
2023-05-10T07:50:52.004Z,1.30
2023-05-10T07:51:52.037Z,1.31
2023-05-10T07:52:51.989Z,1.40
2023-05-10T07:53:52.014Z,1.40
2023-05-10T07:54:52.028Z,1.46
2023-05-10T07:55:52.029Z,1.47
2023-05-10T07:56:51.978Z,1.48
2023-05-10T07:58:21.861Z,0.50
2023-05-10T07:59:21.826Z,0.50
2023-05-10T08:00:21.885Z,0.50
2023-05-10T08:01:21.849Z,0.50
2023-05-10T08:02:21.897Z,0.50
2023-05-10T08:03:21.859Z,0.50
2023-05-10T08:04:21.810Z,0.51
2023-05-10T08:05:21.821Z,0.51
2023-05-10T08:06:21.828Z,0.51
2023-05-10T08:07:22.510Z,0.51
2023-05-10T08:08:21.800Z,0.51
2023-05-10T08:09:21.802Z,0.52
2023-05-10T08:10:21.855Z,0.53
2023-05-10T08:11:21.811Z,0.51
2023-05-10T08:12:21.749Z,0.52
2023-05-10T08:13:21.770Z,0.52
2023-05-10T08:14:21.725Z,0.52
2023-05-10T08:15:21.734Z,0.52
2023-05-10T08:16:21.756Z,0.52
2023-05-10T08:17:22.844Z,0.55
2023-05-10T08:18:22.216Z,0.56
2023-05-10T08:19:21.720Z,0.55
2023-05-10T08:20:21.821Z,0.55
2023-05-10T08:21:21.711Z,0.53
2023-05-10T08:22:21.706Z,0.54
2023-05-10T08:23:21.679Z,0.54
2023-05-10T08:24:21.655Z,0.55
2023-05-10T08:25:21.660Z,0.57
2023-05-10T08:26:21.699Z,0.57
2023-05-10T08:27:21.663Z,0.58
2023-05-10T08:28:21.625Z,0.57
2023-05-10T08:29:21.628Z,0.59
2023-05-10T08:30:22.065Z,0.60
2023-05-10T08:31:21.671Z,0.59
2023-05-10T08:32:21.598Z,0.58
2023-05-10T08:33:21.616Z,0.57
2023-05-10T08:34:21.733Z,0.56
2023-05-10T08:35:22.060Z,0.57
2023-05-10T08:36:21.603Z,0.56
2023-05-10T08:37:21.550Z,0.55
2023-05-10T08:38:21.604Z,0.55
2023-05-10T08:39:29.900Z,0.56
2023-05-10T08:40:22.550Z,0.56
2023-05-10T08:41:21.546Z,0.57
2023-05-10T08:42:21.560Z,0.57
2023-05-10T08:43:21.524Z,0.57
2023-05-10T08:44:21.558Z,0.55
2023-05-10T08:45:21.499Z,0.56
2023-05-10T08:46:21.595Z,0.54
2023-05-10T08:47:21.492Z,0.56
2023-05-10T08:48:21.500Z,0.55
2023-05-10T08:49:21.514Z,0.55
2023-05-10T08:50:21.578Z,0.53
2023-05-10T08:51:21.466Z,0.52
2023-05-10T08:52:21.485Z,0.52
2023-05-10T08:53:21.524Z,0.53
2023-05-10T08:54:21.636Z,0.52
2023-05-10T08:55:21.587Z,0.53
2023-05-10T08:56:21.677Z,0.52
2023-05-10T08:57:21.707Z,0.53
2023-05-10T08:58:21.681Z,0.52
2023-05-10T08:59:21.689Z,0.51
2023-05-10T09:00:21.742Z,0.52
2023-05-10T09:01:21.809Z,0.50
2023-05-10T09:02:21.864Z,0.50
2023-05-10T09:03:21.967Z,0.50
2023-05-10T09:04:22.107Z,0.51
2023-05-10T09:05:22.179Z,0.51
2023-05-10T09:06:21.941Z,0.51
2023-05-10T09:07:22.085Z,0.51
2023-05-10T09:08:22.006Z,0.51
2023-05-10T09:09:22.070Z,0.51
2023-05-10T09:10:22.076Z,0.52
2023-05-10T09:11:22.089Z,0.52
2023-05-10T09:12:22.132Z,0.51
2023-05-10T09:13:22.254Z,0.51
2023-05-10T09:14:24.147Z,0.51
2023-05-10T09:15:22.261Z,0.51
2023-05-10T09:16:22.722Z,0.50
2023-05-10T09:17:22.501Z,0.52
2023-05-10T09:18:22.445Z,0.50
2023-05-10T09:19:22.392Z,0.50
2023-05-10T09:20:22.399Z,0.50
2023-05-10T09:21:22.479Z,0.50
2023-05-10T09:22:22.466Z,0.53
2023-05-10T09:23:22.544Z,0.51
2023-05-10T09:24:22.552Z,0.51
2023-05-10T09:25:22.635Z,0.51
2023-05-10T09:26:22.668Z,0.50
2023-05-10T09:27:22.685Z,0.50
2023-05-10T09:28:22.776Z,0.52
2023-05-10T09:29:22.787Z,0.51
2023-05-10T09:30:22.796Z,0.52
2023-05-10T09:31:23.368Z,0.54
2023-05-10T09:32:22.880Z,0.52
2023-05-10T09:33:22.946Z,0.52
2023-05-10T09:34:22.957Z,0.54
2023-05-10T09:35:22.999Z,0.42
2023-05-10T09:36:23.061Z,0.53
2023-05-10T09:37:23.116Z,0.49
2023-05-10T09:38:23.158Z,0.49
2023-05-10T09:39:23.187Z,0.50
2023-05-10T09:40:23.181Z,0.51
2023-05-10T09:41:23.566Z,0.55
2023-05-10T09:42:23.272Z,0.52
2023-05-10T09:43:23.238Z,0.58
2023-05-10T09:44:23.204Z,0.60
2023-05-10T09:45:23.193Z,0.71
2023-05-10T09:46:23.265Z,0.96
2023-05-10T09:47:23.318Z,1.17
2023-05-10T09:48:23.405Z,1.39
2023-05-10T09:49:23.396Z,1.71
2023-05-10T09:50:23.459Z,2.07
2023-05-10T09:51:23.577Z,2.49
2023-05-10T09:52:23.461Z,2.65
2023-05-10T09:53:23.530Z,3.01
2023-05-10T09:54:23.491Z,3.97
2023-05-10T09:55:23.478Z,4.20
2023-05-10T09:56:23.556Z,4.19
2023-05-10T09:57:23.528Z,4.92
2023-05-10T09:58:23.532Z,5.41
2023-05-10T09:59:24.093Z,5.87
2023-05-10T10:00:23.603Z,6.03
2023-05-10T10:01:23.661Z,6.52
2023-05-10T10:02:23.655Z,7.49
2023-05-10T10:03:23.728Z,7.30
2023-05-10T10:04:23.805Z,8.23
2023-05-10T10:05:23.837Z,9.21
2023-05-10T10:06:30.247Z,8.75
2023-05-10T10:07:24.915Z,8.78
2023-05-10T10:08:23.885Z,8.93
2023-05-10T10:09:23.906Z,9.20
2023-05-10T10:10:23.873Z,9.70
2023-05-10T10:11:24.067Z,11.03
2023-05-10T10:12:23.837Z,12.20
2023-05-10T10:13:23.834Z,12.55
2023-05-10T10:14:23.820Z,12.97
2023-05-10T10:15:23.854Z,13.22
2023-05-10T10:16:24.165Z,14.80
2023-05-10T10:17:23.875Z,15.34
2023-05-10T10:18:23.794Z,15.58
2023-05-10T10:19:23.842Z,16.36
2023-05-10T10:20:23.854Z,17.74
2023-05-10T10:21:23.897Z,18.95
2023-05-10T10:22:23.913Z,19.11
2023-05-10T10:23:23.970Z,18.65
2023-05-10T10:24:23.955Z,19.07
2023-05-10T10:25:23.990Z,20.58
2023-05-10T10:26:24.061Z,21.82
2023-05-10T10:27:24.053Z,19.78
2023-05-10T10:28:25.400Z,19.58
2023-05-10T10:29:24.065Z,20.25
2023-05-10T10:30:24.061Z,20.60
2023-05-10T10:31:24.135Z,18.46
2023-05-10T10:32:24.103Z,12.68
2023-05-10T10:33:28.472Z,12.07
2023-05-10T10:34:25.016Z,11.63
2023-05-10T10:35:24.083Z,9.05
2023-05-10T10:36:24.098Z,5.13
2023-05-10T10:37:24.063Z,3.09
2023-05-10T10:38:24.006Z,1.84
2023-05-10T10:39:23.998Z,1.34
2023-05-10T10:40:23.946Z,1.04
2023-05-10T10:41:24.103Z,0.77
2023-05-10T10:42:23.998Z,0.67
2023-05-10T10:43:23.982Z,0.62
2023-05-10T10:44:23.968Z,0.63
2023-05-10T10:45:23.941Z,0.64
2023-05-10T10:46:24.178Z,0.57
2023-05-10T10:47:24.154Z,0.54
2023-05-10T10:48:23.960Z,0.50
2023-05-10T10:49:24.062Z,0.49
2023-05-10T10:50:23.963Z,0.51
2023-05-10T10:51:23.954Z,0.50
2023-05-10T10:52:23.950Z,0.50
2023-05-10T10:53:23.930Z,0.50
2023-05-10T10:54:23.949Z,0.50
2023-05-10T10:55:23.975Z,0.50
2023-05-10T10:56:23.958Z,0.50
2023-05-10T10:57:24.131Z,0.51
2023-05-10T10:58:24.017Z,0.50
2023-05-10T10:59:24.058Z,0.52
2023-05-10T11:00:24.095Z,0.54
2023-05-10T11:01:24.113Z,0.52
2023-05-10T11:02:24.160Z,0.54
2023-05-10T11:03:24.116Z,0.55
2023-05-10T11:04:24.217Z,0.55
2023-05-10T11:05:24.190Z,0.53
2023-05-10T11:06:24.195Z,0.50
2023-05-10T11:07:24.606Z,0.54
2023-05-10T11:08:24.276Z,0.51
2023-05-10T11:09:24.290Z,0.50
2023-05-10T11:10:24.287Z,0.50
2023-05-10T11:11:24.296Z,0.51
2023-05-10T11:12:24.333Z,0.50
2023-05-10T11:13:24.376Z,0.53
2023-05-10T11:14:24.390Z,0.50
2023-05-10T11:15:24.474Z,0.50
2023-05-10T11:16:24.887Z,0.50
2023-05-10T11:17:24.586Z,0.51
2023-05-10T11:18:24.718Z,0.51
2023-05-10T11:19:24.547Z,0.51
2023-05-10T11:20:24.580Z,0.54
2023-05-10T11:21:24.583Z,0.51
2023-05-10T11:22:24.622Z,0.54
2023-05-10T11:23:24.743Z,0.49
2023-05-10T11:24:24.726Z,0.51
2023-05-10T11:25:24.740Z,0.53
2023-05-10T11:26:24.849Z,0.50
2023-05-10T11:27:25.115Z,0.62
2023-05-10T11:28:24.916Z,0.71
2023-05-10T11:29:25.281Z,0.91
2023-05-10T11:30:25.164Z,1.10
2023-05-10T11:31:25.187Z,1.20
2023-05-10T11:32:25.184Z,1.26
2023-05-10T11:33:25.131Z,1.25
2023-05-10T11:34:25.151Z,1.28
2023-05-10T11:35:25.189Z,1.22
2023-05-10T11:36:25.203Z,1.33
2023-05-10T11:37:25.611Z,1.28
2023-05-10T11:38:25.247Z,1.17
2023-05-10T11:39:25.209Z,1.18
2023-05-10T11:40:25.242Z,1.23
2023-05-10T11:41:25.274Z,1.26
2023-05-10T11:42:25.621Z,1.20
2023-05-10T11:43:25.311Z,1.24
2023-05-10T11:44:25.314Z,1.41
2023-05-10T11:45:25.381Z,1.37
2023-05-10T11:46:25.449Z,1.58
2023-05-10T11:47:25.433Z,1.72
2023-05-10T11:48:25.392Z,1.63
2023-05-10T11:49:25.383Z,1.88
2023-05-10T11:50:25.401Z,1.80
2023-05-10T11:51:25.410Z,1.62
2023-05-10T11:52:25.411Z,1.82
2023-05-10T11:53:25.918Z,1.82
2023-05-10T11:54:25.445Z,1.72
2023-05-10T11:55:25.406Z,1.85
2023-05-10T11:56:25.430Z,2.06
2023-05-10T11:57:25.457Z,2.03
2023-05-10T11:58:25.449Z,1.97
2023-05-10T11:59:25.473Z,1.95
2023-05-10T12:00:25.542Z,1.75
2023-05-10T12:01:25.499Z,1.56
2023-05-10T12:02:25.612Z,1.44
2023-05-10T12:03:25.627Z,1.50
2023-05-10T12:04:25.539Z,1.21
2023-05-10T12:05:25.571Z,1.23
2023-05-10T12:06:25.555Z,1.32
2023-05-10T12:07:25.621Z,1.25
2023-05-10T12:08:25.623Z,1.03
2023-05-10T12:09:39.564Z,1.04
2023-05-10T12:10:26.579Z,1.04
2023-05-10T12:11:25.596Z,1.06
2023-05-10T12:12:25.610Z,1.14
2023-05-10T12:13:25.583Z,1.23
2023-05-10T12:14:25.586Z,1.37
2023-05-10T12:15:25.589Z,1.37
2023-05-10T12:16:25.594Z,1.41
2023-05-10T12:17:25.595Z,1.84
2023-05-10T12:18:25.564Z,1.49
2023-05-10T12:19:25.568Z,1.42
2023-05-10T12:20:25.518Z,1.60
2023-05-10T12:21:25.552Z,1.75
2023-05-10T12:22:25.537Z,1.98
2023-05-10T12:23:25.525Z,2.39
2023-05-10T12:24:25.528Z,2.69
2023-05-10T12:25:25.492Z,2.88
2023-05-10T12:26:25.551Z,3.10
2023-05-10T12:27:25.489Z,3.35
2023-05-10T12:28:25.476Z,3.52
2023-05-10T12:29:25.481Z,3.87
2023-05-10T12:30:25.480Z,4.53
2023-05-10T12:31:25.479Z,4.79
2023-05-10T12:32:25.499Z,4.98
2023-05-10T12:33:25.496Z,5.03
2023-05-10T12:34:25.540Z,4.96
2023-05-10T12:35:25.557Z,4.88
2023-05-10T12:36:25.621Z,4.56
2023-05-10T12:37:25.693Z,4.84
2023-05-10T12:38:25.686Z,4.51
2023-05-10T12:39:25.791Z,4.31
2023-05-10T12:40:25.797Z,4.25
2023-05-10T12:41:25.917Z,4.30
2023-05-10T12:42:25.931Z,4.45
2023-05-10T12:43:26.037Z,4.41
2023-05-10T12:44:26.066Z,4.53
2023-05-10T12:45:26.100Z,4.51
2023-05-10T12:46:26.320Z,4.54
2023-05-10T12:47:26.261Z,4.55
2023-05-10T12:48:26.330Z,4.59
2023-05-10T12:49:27.149Z,4.56
2023-05-10T12:50:26.444Z,4.75
2023-05-10T12:51:26.505Z,4.94
2023-05-10T12:52:26.543Z,4.92
2023-05-10T12:53:26.662Z,4.75
2023-05-10T12:54:26.660Z,4.86
2023-05-10T12:55:26.719Z,4.92
2023-05-10T12:56:26.782Z,4.95
2023-05-10T12:57:26.871Z,4.94
2023-05-10T12:58:35.482Z,4.88
2023-05-10T12:59:27.870Z,4.89
2023-05-10T13:00:26.910Z,4.94
2023-05-10T13:01:26.879Z,5.06
2023-05-10T13:02:26.901Z,5.44
2023-05-10T13:03:26.888Z,5.85
2023-05-10T13:04:26.921Z,5.89
2023-05-10T13:05:26.848Z,5.53
2023-05-10T13:06:26.835Z,5.74
2023-05-10T13:07:26.808Z,5.96